createdAt,value
2022-09-07T00:02:51.966Z,18.83
2022-09-07T00:12:57.171Z,18.68
2022-09-07T00:23:01.026Z,18.75
2022-09-07T00:33:06.288Z,18.85
2022-09-07T00:43:16.117Z,18.91
2022-09-07T00:53:24.759Z,18.80
2022-09-07T01:03:33.285Z,18.97
2022-09-07T01:13:40.875Z,18.79
2022-09-07T01:24:29.623Z,19.00
2022-09-07T01:34:34.784Z,18.94
2022-09-07T01:44:43.407Z,19.02
2022-09-07T01:54:53.425Z,18.80
2022-09-07T02:05:04.085Z,19.06
2022-09-07T02:15:15.659Z,19.11
2022-09-07T02:25:24.034Z,19.08
2022-09-07T02:35:29.864Z,19.15
2022-09-07T02:45:51.703Z,19.27
2022-09-07T02:56:10.943Z,19.21
2022-09-07T03:06:20.762Z,19.25
2022-09-07T03:16:26.007Z,19.05
2022-09-07T03:26:30.305Z,19.02
2022-09-07T03:36:35.784Z,18.60
2022-09-07T03:46:39.673Z,18.59
2022-09-07T03:56:44.863Z,18.56
2022-09-07T04:06:48.732Z,18.48
2022-09-07T04:16:54.042Z,18.50
2022-09-07T04:26:57.901Z,18.55
2022-09-07T04:37:03.151Z,18.30
2022-09-07T04:47:08.000Z,18.20
2022-09-07T04:57:13.233Z,18.25
2022-09-07T05:07:17.027Z,18.29
2022-09-07T05:17:22.476Z,18.38
2022-09-07T05:27:26.618Z,18.45
2022-09-07T05:37:32.045Z,18.52
2022-09-07T05:47:37.991Z,18.61
2022-09-07T05:57:43.169Z,18.63
2022-09-07T06:07:48.921Z,18.86
2022-09-07T06:17:54.656Z,19.27
2022-09-07T06:27:58.894Z,19.50
2022-09-07T06:38:04.233Z,19.66
2022-09-07T06:48:10.853Z,19.98
2022-09-07T06:58:16.068Z,20.34
2022-09-07T07:08:20.126Z,20.70
2022-09-07T07:18:25.486Z,21.02
2022-09-07T07:49:02.012Z,22.62
2022-09-07T07:59:07.874Z,22.44
2022-09-07T08:09:12.479Z,22.76
2022-09-07T08:19:17.829Z,23.20
2022-09-07T08:29:21.721Z,23.49
2022-09-07T08:39:27.145Z,23.04
2022-09-07T08:49:43.433Z,23.59
2022-09-07T08:59:57.823Z,23.88
2022-09-07T09:10:17.756Z,23.78
2022-09-07T09:20:28.038Z,24.27
2022-09-07T09:30:32.125Z,24.38
2022-09-07T09:40:38.339Z,24.48
2022-09-07T10:01:34.978Z,24.54
2022-09-07T10:22:32.537Z,24.84
2022-09-07T10:33:00.216Z,25.09
2022-09-07T10:43:26.194Z,25.54
2022-09-07T10:53:43.814Z,25.86
2022-09-07T11:04:05.241Z,26.16
2022-09-07T11:14:15.154Z,26.15
2022-09-07T11:24:31.139Z,26.36
2022-09-07T11:34:42.420Z,26.64
2022-09-07T11:44:53.091Z,26.92
2022-09-07T11:55:04.417Z,26.80
2022-09-07T12:05:24.185Z,26.84
2022-09-07T12:15:38.010Z,27.23
2022-09-07T12:25:45.113Z,27.36
2022-09-07T12:35:48.860Z,27.74
2022-09-07T12:45:56.153Z,27.93
2022-09-07T12:56:20.842Z,27.81
2022-09-07T13:17:41.562Z,28.74
2022-09-07T13:27:53.643Z,27.50
2022-09-07T13:38:00.515Z,26.57
2022-09-07T13:48:17.046Z,24.89
2022-09-07T13:58:29.771Z,25.46
2022-09-07T14:08:39.228Z,26.55
2022-09-07T14:18:43.840Z,26.97
2022-09-07T14:28:52.506Z,27.20
2022-09-07T14:39:04.992Z,27.01
2022-09-07T14:49:21.928Z,27.23
2022-09-07T14:59:37.923Z,27.29
2022-09-07T15:09:42.918Z,26.75
2022-09-07T15:19:47.067Z,26.79
2022-09-07T15:29:52.115Z,26.69
2022-09-07T15:39:56.244Z,26.40
2022-09-07T15:50:05.506Z,26.47
2022-09-07T16:00:17.949Z,26.70
2022-09-07T16:10:24.297Z,27.57
2022-09-07T16:20:32.082Z,27.99
2022-09-07T16:30:41.002Z,27.72
2022-09-07T16:40:44.566Z,27.00
2022-09-07T16:51:01.225Z,26.78
2022-09-07T17:01:07.199Z,26.50
2022-09-07T17:11:17.664Z,25.66
2022-09-07T17:21:21.403Z,25.34
2022-09-07T17:41:54.424Z,24.67
2022-09-07T17:52:01.579Z,24.33
2022-09-07T18:02:05.280Z,24.20
2022-09-07T18:12:13.690Z,23.98
2022-09-07T18:22:19.573Z,23.63
2022-09-07T18:32:27.294Z,23.61
2022-09-07T18:42:34.211Z,23.36
2022-09-07T18:52:59.078Z,23.13
2022-09-07T19:03:04.944Z,22.95
2022-09-07T19:13:10.274Z,22.68
2022-09-07T19:23:13.897Z,22.58
2022-09-07T19:33:18.970Z,22.23
2022-09-07T19:43:22.725Z,22.06
2022-09-07T19:53:27.743Z,21.76
2022-09-07T20:03:31.656Z,21.61
2022-09-07T20:13:41.423Z,21.38
2022-09-07T20:23:45.782Z,21.11
2022-09-07T20:33:54.203Z,20.97
2022-09-07T20:44:02.389Z,20.51
2022-09-07T20:54:10.374Z,20.33
2022-09-07T21:04:15.968Z,20.23
2022-09-07T21:14:21.671Z,20.15
2022-09-07T21:24:25.548Z,19.99
2022-09-07T21:34:30.503Z,19.96
2022-09-07T21:44:34.115Z,19.65
2022-09-07T21:54:39.130Z,19.53
2022-09-07T22:04:42.807Z,19.49
2022-09-07T22:14:48.040Z,18.97
2022-09-07T22:24:51.791Z,19.18
2022-09-07T22:34:56.785Z,19.13
2022-09-07T22:45:00.644Z,19.02
2022-09-07T22:55:09.197Z,18.96
2022-09-07T23:05:12.968Z,18.97
2022-09-07T23:15:18.195Z,19.21
2022-09-07T23:25:22.677Z,18.98
2022-09-07T23:35:30.322Z,18.92
2022-09-07T23:45:34.142Z,19.01
2022-09-07T23:55:39.810Z,18.98
